createdAt,value
2023-03-19T00:00:45.558Z,19.50
2023-03-19T00:05:55.234Z,20.00
2023-03-19T00:11:00.536Z,18.03
2023-03-19T00:16:08.886Z,22.40
2023-03-19T00:21:16.644Z,22.17
2023-03-19T00:26:22.941Z,22.70
2023-03-19T00:31:33.249Z,17.67
2023-03-19T00:36:40.669Z,21.73
2023-03-19T00:41:50.557Z,17.67
2023-03-19T00:46:59.371Z,20.40
2023-03-19T00:52:06.557Z,20.57
2023-03-19T00:57:17.023Z,19.10
2023-03-19T01:02:25.084Z,19.60
2023-03-19T01:07:30.026Z,19.90
2023-03-19T01:12:40.450Z,21.07
2023-03-19T01:17:48.576Z,23.63
2023-03-19T01:22:54.282Z,23.30
2023-03-19T01:27:59.299Z,18.43
2023-03-19T01:33:14.740Z,19.40
2023-03-19T01:38:40.583Z,20.90
2023-03-19T01:43:51.371Z,20.63
2023-03-19T01:49:16.725Z,22.53
2023-03-19T01:54:31.347Z,21.57
2023-03-19T01:59:51.926Z,21.93
2023-03-19T02:05:26.052Z,21.80
2023-03-19T02:10:36.332Z,20.83
2023-03-19T02:15:42.190Z,18.80
2023-03-19T02:20:56.843Z,25.30
2023-03-19T02:26:12.246Z,20.37
2023-03-19T02:31:20.832Z,20.07
2023-03-19T02:36:31.634Z,20.03
2023-03-19T02:41:44.654Z,20.77
2023-03-19T02:46:53.160Z,19.33
2023-03-19T02:52:00.243Z,18.33
2023-03-19T02:57:08.644Z,18.73
2023-03-19T03:02:14.244Z,19.57
2023-03-19T03:07:20.126Z,20.97
2023-03-19T03:12:27.910Z,19.30
2023-03-19T03:17:32.966Z,18.20
2023-03-19T03:22:38.209Z,15.33
2023-03-19T03:27:45.910Z,19.00
2023-03-19T03:32:52.066Z,18.63
2023-03-19T03:37:58.139Z,22.63
2023-03-19T03:43:06.927Z,16.97
2023-03-19T03:48:13.851Z,18.60
2023-03-19T03:53:20.133Z,16.60
2023-03-19T03:58:28.284Z,18.30
2023-03-19T04:03:33.369Z,21.07
2023-03-19T04:08:38.585Z,14.77
2023-03-19T04:13:47.693Z,17.20
2023-03-19T04:18:55.423Z,18.90
2023-03-19T04:24:00.844Z,19.23
2023-03-19T04:29:12.101Z,19.70
2023-03-19T04:34:18.379Z,17.10
2023-03-19T04:39:23.443Z,17.73
2023-03-19T04:44:32.746Z,16.20
2023-03-19T04:49:39.951Z,19.13
2023-03-19T04:54:45.004Z,20.43
2023-03-19T04:59:55.742Z,16.30
2023-03-19T05:05:01.895Z,20.23
2023-03-19T05:10:09.273Z,17.73
2023-03-19T05:15:18.181Z,15.43
2023-03-19T05:20:32.593Z,16.77
2023-03-19T05:25:44.127Z,17.07
2023-03-19T05:30:57.336Z,16.37
2023-03-19T05:36:09.374Z,21.87
2023-03-19T05:41:32.263Z,17.17
2023-03-19T05:46:46.752Z,16.03
2023-03-19T05:51:52.827Z,16.07
2023-03-19T05:56:58.216Z,16.17
2023-03-19T06:02:36.440Z,19.57
2023-03-19T06:07:57.075Z,17.97
2023-03-19T06:13:34.683Z,26.47
2023-03-19T06:18:48.185Z,14.90
2023-03-19T06:23:56.692Z,16.13
2023-03-19T06:29:08.317Z,19.97
2023-03-19T06:34:16.744Z,16.90
2023-03-19T06:39:23.844Z,15.33
2023-03-19T06:44:32.279Z,14.57
2023-03-19T06:49:42.918Z,18.60
2023-03-19T06:54:49.250Z,14.70
2023-03-19T06:59:55.158Z,15.40
2023-03-19T07:05:02.738Z,16.10
2023-03-19T07:10:08.903Z,18.40
2023-03-19T07:15:17.699Z,16.43
2023-03-19T07:20:25.406Z,15.30
2023-03-19T07:25:32.493Z,17.17
2023-03-19T07:30:41.160Z,15.93
2023-03-19T07:35:51.521Z,13.53
2023-03-19T07:41:02.287Z,14.90
2023-03-19T07:46:08.187Z,15.30
2023-03-19T07:51:19.154Z,14.73
2023-03-19T07:56:24.497Z,17.33
2023-03-19T08:01:29.995Z,15.13
2023-03-19T08:06:40.199Z,14.37
2023-03-19T08:11:45.611Z,14.97
2023-03-19T08:16:50.889Z,16.40
2023-03-19T08:22:00.159Z,13.40
2023-03-19T08:27:05.391Z,15.20
2023-03-19T08:32:13.395Z,14.57
2023-03-19T08:37:23.269Z,15.43
2023-03-19T08:42:29.080Z,19.80
2023-03-19T08:47:34.410Z,13.13
2023-03-19T08:52:42.162Z,13.87
2023-03-19T08:57:47.215Z,15.93
2023-03-19T09:02:52.469Z,14.50
2023-03-19T09:08:02.488Z,15.47
2023-03-19T09:13:09.586Z,15.40
2023-03-19T09:18:15.786Z,15.47
2023-03-19T09:23:25.404Z,16.57
2023-03-19T09:28:31.249Z,16.20
2023-03-19T09:33:36.743Z,15.77
2023-03-19T09:38:46.665Z,15.73
2023-03-19T09:44:05.068Z,16.43
2023-03-19T09:49:19.675Z,14.13
2023-03-19T09:54:37.141Z,14.93
2023-03-19T09:59:42.776Z,15.80
2023-03-19T10:05:00.824Z,14.83
2023-03-19T10:10:22.147Z,15.23
2023-03-19T10:15:35.224Z,17.43
2023-03-19T10:20:48.879Z,15.80
2023-03-19T10:26:00.019Z,14.23
2023-03-19T10:31:26.008Z,16.67
2023-03-19T10:36:39.122Z,18.80
2023-03-19T10:42:02.506Z,14.43
2023-03-19T10:47:20.119Z,15.67
2023-03-19T10:52:32.556Z,17.50
2023-03-19T10:57:47.183Z,13.30
2023-03-19T11:02:54.433Z,14.73
2023-03-19T11:08:01.992Z,18.57
2023-03-19T11:13:34.035Z,14.97
2023-03-19T11:18:42.558Z,13.47
2023-03-19T11:23:54.601Z,16.63
2023-03-19T11:29:08.258Z,19.90
2023-03-19T11:34:30.627Z,14.27
2023-03-19T11:39:46.046Z,14.23
2023-03-19T11:45:07.268Z,16.37
2023-03-19T11:50:29.750Z,16.10
2023-03-19T11:55:42.653Z,13.97
2023-03-19T12:00:55.168Z,15.80
2023-03-19T12:06:06.274Z,15.50
2023-03-19T12:11:28.025Z,15.30
2023-03-19T12:16:48.314Z,15.63
2023-03-19T12:22:03.419Z,14.87
2023-03-19T12:27:22.964Z,15.93
2023-03-19T12:32:56.064Z,15.37
2023-03-19T12:38:08.816Z,15.43
2023-03-19T12:43:21.094Z,15.20
2023-03-19T12:48:33.235Z,17.80
2023-03-19T12:53:46.565Z,18.40
2023-03-19T12:59:03.511Z,15.67
2023-03-19T13:04:18.094Z,15.60
2023-03-19T13:09:31.618Z,15.70
2023-03-19T13:14:48.505Z,15.03
2023-03-19T13:19:57.302Z,19.47
2023-03-19T13:25:04.697Z,13.83
2023-03-19T13:30:20.656Z,17.47
2023-03-19T13:35:41.759Z,15.53
2023-03-19T13:40:51.931Z,13.93
2023-03-19T13:46:10.036Z,17.50
2023-03-19T13:51:33.135Z,18.33
2023-03-19T13:57:07.081Z,15.37
2023-03-19T14:02:41.779Z,15.77
2023-03-19T14:07:56.417Z,15.53
2023-03-19T14:13:10.270Z,14.47
2023-03-19T14:18:24.728Z,15.87
2023-03-19T14:23:42.740Z,16.47
2023-03-19T14:28:59.276Z,13.73
2023-03-19T14:34:24.225Z,13.53
2023-03-19T14:39:35.503Z,17.33
2023-03-19T14:45:12.106Z,13.83
2023-03-19T14:50:34.730Z,14.93
2023-03-19T14:55:42.396Z,16.10
2023-03-19T15:00:53.079Z,14.73
2023-03-19T15:06:01.231Z,17.70
2023-03-19T15:11:27.561Z,16.10
2023-03-19T15:16:45.928Z,16.40
2023-03-19T15:21:52.919Z,14.73
2023-03-19T15:27:01.038Z,16.70
2023-03-19T15:32:10.310Z,16.90
2023-03-19T15:37:20.396Z,19.33
2023-03-19T15:42:30.698Z,18.40
2023-03-19T15:47:39.630Z,16.37
2023-03-19T15:52:48.114Z,16.73
2023-03-19T15:57:56.715Z,16.63
2023-03-19T16:03:02.070Z,13.00
2023-03-19T16:08:18.387Z,16.37
2023-03-19T16:13:32.668Z,17.03
2023-03-19T16:18:45.906Z,14.70
2023-03-19T16:23:57.026Z,15.47
2023-03-19T16:29:09.691Z,15.20
2023-03-19T16:34:32.557Z,5.13
2023-03-19T16:39:39.868Z,6.53
2023-03-19T16:44:50.055Z,6.27
2023-03-19T16:49:54.984Z,7.57
2023-03-19T16:55:04.837Z,5.73
2023-03-19T17:00:20.719Z,3.47
2023-03-19T17:05:26.826Z,8.50
2023-03-19T17:10:36.470Z,7.53
2023-03-19T17:15:46.482Z,5.40
2023-03-19T17:20:57.938Z,6.40
2023-03-19T17:26:07.071Z,3.53
2023-03-19T17:31:26.869Z,5.03
2023-03-19T17:36:33.426Z,5.20
2023-03-19T17:41:39.228Z,7.67
2023-03-19T17:46:52.342Z,4.53
2023-03-19T17:51:58.822Z,4.43
2023-03-19T17:57:04.234Z,3.20
2023-03-19T18:02:27.300Z,4.47
2023-03-19T18:07:32.794Z,6.07
2023-03-19T18:12:37.791Z,6.23
2023-03-19T18:17:49.114Z,4.53
2023-03-19T18:22:55.851Z,5.43
2023-03-19T18:28:01.423Z,4.10
2023-03-19T18:33:13.818Z,4.70
2023-03-19T18:38:23.800Z,3.97
2023-03-19T18:43:29.985Z,5.27
2023-03-19T18:48:38.318Z,3.57
2023-03-19T18:53:43.606Z,3.97
2023-03-19T18:58:50.016Z,4.27
2023-03-19T19:04:00.217Z,3.73
2023-03-19T19:09:06.920Z,4.07
2023-03-19T19:14:22.025Z,3.67
2023-03-19T19:19:31.505Z,3.40
2023-03-19T19:24:36.572Z,5.17
2023-03-19T19:29:41.929Z,9.70
2023-03-19T19:34:51.971Z,4.93
2023-03-19T19:39:57.989Z,3.33
2023-03-19T19:45:05.767Z,8.23
2023-03-19T19:50:22.378Z,7.27
2023-03-19T19:55:30.472Z,5.87
2023-03-19T20:00:36.641Z,4.90
2023-03-19T20:05:47.973Z,5.80
2023-03-19T20:10:53.590Z,7.83
2023-03-19T20:16:01.281Z,6.47
2023-03-19T20:21:15.166Z,4.53
2023-03-19T20:26:24.393Z,6.37
2023-03-19T20:31:33.172Z,6.17
2023-03-19T20:36:41.860Z,8.23
2023-03-19T20:41:49.916Z,7.57
2023-03-19T20:46:59.164Z,11.57
2023-03-19T20:52:09.544Z,9.00
2023-03-19T20:57:16.848Z,10.37
2023-03-19T21:02:25.458Z,12.87
2023-03-19T21:07:38.680Z,9.37
2023-03-19T21:12:45.152Z,10.30
2023-03-19T21:17:50.750Z,10.40
2023-03-19T21:23:05.250Z,8.57
2023-03-19T21:28:18.797Z,8.73
2023-03-19T21:33:27.174Z,7.53
2023-03-19T21:38:35.733Z,9.00
2023-03-19T21:43:45.666Z,7.90
2023-03-19T21:48:50.625Z,8.67
2023-03-19T21:53:58.768Z,9.93
2023-03-19T21:59:06.740Z,11.63
2023-03-19T22:04:14.146Z,9.20
2023-03-19T22:09:21.917Z,7.67
2023-03-19T22:14:29.096Z,9.67
2023-03-19T22:19:34.091Z,11.10
2023-03-19T22:24:44.428Z,12.83
2023-03-19T22:29:49.865Z,9.50
2023-03-19T22:34:55.168Z,9.63
2023-03-19T22:40:04.269Z,9.83
2023-03-19T22:45:17.129Z,9.97
2023-03-19T22:50:25.862Z,8.77
2023-03-19T22:55:35.894Z,10.80
2023-03-19T23:00:42.053Z,8.13
2023-03-19T23:05:50.994Z,10.13
2023-03-19T23:10:59.606Z,9.40
2023-03-19T23:16:10.384Z,8.50
2023-03-19T23:21:18.535Z,8.43
2023-03-19T23:26:32.036Z,11.40
2023-03-19T23:31:38.720Z,9.80
2023-03-19T23:36:44.738Z,14.67
2023-03-19T23:41:55.233Z,19.63
2023-03-19T23:47:03.837Z,17.87
2023-03-19T23:52:09.032Z,10.80
2023-03-19T23:57:21.126Z,10.07
